Time;durP1;ratioP1;P1;durP2;ratioP2;P2;SDS_P1;SDS_P2;PMS_P1;PMS_P2;Temp;Humidity;BMP_temperature;BMP_pressure;BME280_temperature;BME280_humidity;BME280_pressure;Samples;Min_cycle;Max_cycle;Signal;HPM_P1;HPM_P2
2022/01/18 00:00:35;;;;;;;10.15;7;;;;;;;3.25;76.78516;96768.45;;;;
2022/01/18 00:01:38;;;;;;;10.15;7;;;;;;;3.25;76.78516;96768.45;;;;
2022/01/18 00:02:39;;;;;;;10.15;7;;;;;;;3.25;76.78516;96768.45;;;;
2022/01/18 00:03:40;;;;;;;10.15;7;;;;;;;3.25;76.78516;96768.45;;;;
2022/01/18 00:04:40;;;;;;;10.15;7;;;;;;;3.25;76.78516;96768.45;;;;
2022/01/18 00:05:42;;;;;;;10.05;7.099999;;;;;;;3.29;76.89844;96764.01;;;;
2022/01/18 00:06:48;;;;;;;10.05;7.099999;;;;;;;3.29;76.89844;96764.01;;;;
2022/01/18 00:07:49;;;;;;;10.05;7.099999;;;;;;;3.29;76.89844;96764.01;;;;
2022/01/18 00:08:49;;;;;;;10.05;7.099999;;;;;;;3.29;76.89844;96764.01;;;;
2022/01/18 00:09:50;;;;;;;10.05;7.099999;;;;;;;3.29;76.89844;96764.01;;;;
2022/01/18 00:10:51;;;;;;;10.05;7.099999;;;;;;;3.29;76.89844;96764.01;;;;
2022/01/18 00:11:58;;;;;;;10.05;7.099999;;;;;;;3.29;76.89844;96764.01;;;;
2022/01/18 00:14:09;;;;;;;10.05;7.099999;;;;;;;3.29;76.89844;96764.01;;;;
2022/01/18 00:15:30;;;;;;;10.05;7.099999;;;;;;;3.29;76.89844;96764.01;;;;
2022/01/18 00:16:38;;;;;;;9.5;6.85;;;;;;;3.31;77.05762;96779.86;;;;
2022/01/18 00:17:42;;;;;;;9.5;6.85;;;;;;;3.31;77.05762;96779.86;;;;
2022/01/18 00:18:48;;;;;;;9.5;6.85;;;;;;;3.31;77.05762;96779.86;;;;
2022/01/18 00:19:54;;;;;;;9.5;6.85;;;;;;;3.31;77.05762;96779.86;;;;
2022/01/18 00:21:11;;;;;;;9.5;6.85;;;;;;;3.31;77.05762;96779.86;;;;
2022/01/18 00:22:12;;;;;;;9.5;6.85;;;;;;;3.31;77.05762;96779.86;;;;
2022/01/18 00:23:13;;;;;;;9.5;6.85;;;;;;;3.31;77.05762;96779.86;;;;
2022/01/18 00:24:14;;;;;;;9.5;6.85;;;;;;;3.31;77.05762;96779.86;;;;
2022/01/18 00:25:14;;;;;;;9.5;6.85;;;;;;;3.31;77.05762;96779.86;;;;
2022/01/18 00:26:18;;;;;;;9.650001;7.25;;;;;;;3.24;77.20508;96770.7;;;;
2022/01/18 00:27:19;;;;;;;9.650001;7.25;;;;;;;3.24;77.20508;96770.7;;;;
2022/01/18 00:28:20;;;;;;;9.650001;7.25;;;;;;;3.24;77.20508;96770.7;;;;
2022/01/18 00:29:24;;;;;;;9.650001;7.25;;;;;;;3.24;77.20508;96770.7;;;;
2022/01/18 00:30:47;;;;;;;9.650001;7.25;;;;;;;3.24;77.20508;96770.7;;;;
2022/01/18 00:32:02;;;;;;;9.650001;7.25;;;;;;;3.24;77.20508;96770.7;;;;
2022/01/18 00:33:15;;;;;;;9.650001;7.25;;;;;;;3.24;77.20508;96770.7;;;;
2022/01/18 00:34:21;;;;;;;9.650001;7.25;;;;;;;3.24;77.20508;96770.7;;;;
2022/01/18 00:35:22;;;;;;;9.650001;7.25;;;;;;;3.24;77.20508;96770.7;;;;
2022/01/18 00:36:27;;;;;;;9.650001;7.25;;;;;;;3.24;77.20508;96770.7;;;;
2022/01/18 00:37:35;;;;;;;10.6;7.400001;;;;;;;3.19;77.45801;96789.5;;;;
2022/01/18 00:38:45;;;;;;;10.6;7.400001;;;;;;;3.19;77.45801;96789.5;;;;
2022/01/18 00:39:45;;;;;;;10.6;7.400001;;;;;;;3.19;77.45801;96789.5;;;;
2022/01/18 00:40:46;;;;;;;10.6;7.400001;;;;;;;3.19;77.45801;96789.5;;;;
2022/01/18 00:41:46;;;;;;;10.6;7.400001;;;;;;;3.19;77.45801;96789.5;;;;
2022/01/18 00:42:47;;;;;;;10.6;7.400001;;;;;;;3.19;77.45801;96789.5;;;;
2022/01/18 00:43:48;;;;;;;10.6;7.400001;;;;;;;3.19;77.45801;96789.5;;;;
2022/01/18 00:44:49;;;;;;;10.6;7.400001;;;;;;;3.19;77.45801;96789.5;;;;
2022/01/18 00:45:50;;;;;;;10.6;7.400001;;;;;;;3.19;77.45801;96789.5;;;;
2022/01/18 00:46:51;;;;;;;10.6;7.400001;;;;;;;3.19;77.45801;96789.5;;;;
2022/01/18 00:47:52;;;;;;;11.2;8.249999;;;;;;;3.15;77.59766;96808.17;;;;
2022/01/18 00:48:54;;;;;;;11.2;8.249999;;;;;;;3.15;77.59766;96808.17;;;;
2022/01/18 00:50:00;;;;;;;11.2;8.249999;;;;;;;3.15;77.59766;96808.17;;;;
2022/01/18 00:51:01;;;;;;;11.2;8.249999;;;;;;;3.15;77.59766;96808.17;;;;
2022/01/18 00:52:04;;;;;;;11.2;8.249999;;;;;;;3.15;77.59766;96808.17;;;;
2022/01/18 00:53:10;;;;;;;11.2;8.249999;;;;;;;3.15;77.59766;96808.17;;;;
2022/01/18 00:54:13;;;;;;;11.2;8.249999;;;;;;;3.15;77.59766;96808.17;;;;
2022/01/18 00:55:14;;;;;;;11.2;8.249999;;;;;;;3.15;77.59766;96808.17;;;;
2022/01/18 00:56:21;;;;;;;11.2;8.249999;;;;;;;3.15;77.59766;96808.17;;;;
2022/01/18 00:57:21;;;;;;;11.2;8.249999;;;;;;;3.15;77.59766;96808.17;;;;
2022/01/18 00:58:22;;;;;;;11.2;8.15;;;;;;;3.16;77.85156;96816.92;;;;
2022/01/18 00:59:22;;;;;;;11.2;8.15;;;;;;;3.16;77.85156;96816.92;;;;
2022/01/18 01:00:23;;;;;;;11.2;8.15;;;;;;;3.16;77.85156;96816.92;;;;
2022/01/18 01:01:24;;;;;;;11.2;8.15;;;;;;;3.16;77.85156;96816.92;;;;
2022/01/18 01:02:26;;;;;;;11.2;8.15;;;;;;;3.16;77.85156;96816.92;;;;
2022/01/18 01:03:26;;;;;;;11.2;8.15;;;;;;;3.16;77.85156;96816.92;;;;
2022/01/18 01:04:31;;;;;;;11.2;8.15;;;;;;;3.16;77.85156;96816.92;;;;
2022/01/18 01:05:32;;;;;;;11.2;8.15;;;;;;;3.16;77.85156;96816.92;;;;
2022/01/18 01:06:32;;;;;;;11.2;8.15;;;;;;;3.16;77.85156;96816.92;;;;
2022/01/18 01:07:36;;;;;;;11.2;8.15;;;;;;;3.16;77.85156;96816.92;;;;
2022/01/18 01:08:36;;;;;;;11.2;8.15;;;;;;;3.16;77.85156;96816.92;;;;
2022/01/18 01:09:37;;;;;;;12.1;8.300001;;;;;;;3.18;77.92871;96826.53;;;;
2022/01/18 01:10:38;;;;;;;12.1;8.300001;;;;;;;3.18;77.92871;96826.53;;;;
2022/01/18 01:11:40;;;;;;;12.1;8.300001;;;;;;;3.18;77.92871;96826.53;;;;
2022/01/18 01:12:41;;;;;;;12.1;8.300001;;;;;;;3.18;77.92871;96826.53;;;;
2022/01/18 01:13:43;;;;;;;12.1;8.300001;;;;;;;3.18;77.92871;96826.53;;;;
2022/01/18 01:14:46;;;;;;;12.1;8.300001;;;;;;;3.18;77.92871;96826.53;;;;
2022/01/18 01:16:03;;;;;;;12.1;8.300001;;;;;;;3.18;77.92871;96826.53;;;;
2022/01/18 01:17:17;;;;;;;12.1;8.300001;;;;;;;3.18;77.92871;96826.53;;;;
2022/01/18 01:18:33;;;;;;;12.1;8.300001;;;;;;;3.18;77.92871;96826.53;;;;
2022/01/18 01:32:10;;;;;;;11.55;8.25;;;;;;;3.19;78.12109;96829.47;;;;
2022/01/18 01:43:48;;;;;;;0;0;;;;;;;0;0;0;;;;
2022/01/18 01:44:49;;;;;;;0;0;;;;;;;0;0;0;;;;
2022/01/18 01:45:50;;;;;;;0;0;;;;;;;0;0;0;;;;
2022/01/18 01:46:52;;;;;;;0;0;;;;;;;0;0;0;;;;
2022/01/18 01:47:54;;;;;;;0;0;;;;;;;0;0;0;;;;
2022/01/18 01:48:57;;;;;;;0;0;;;;;;;0;0;0;;;;
2022/01/18 01:49:58;;;;;;;0;0;;;;;;;0;0;0;;;;
2022/01/18 01:51:03;;;;;;;0;0;;;;;;;0;0;0;;;;
2022/01/18 01:52:03;;;;;;;0;0;;;;;;;0;0;0;;;;
2022/01/18 01:53:06;;;;;;;0;0;;;;;;;0;0;0;;;;
2022/01/18 01:54:07;;;;;;;0;0;;;;;;;0;0;0;;;;
2022/01/18 01:55:10;;;;;;;0;0;;;;;;;0;0;0;;;;
2022/01/18 01:56:11;;;;;;;0;0;;;;;;;0;0;0;;;;
2022/01/18 01:57:11;;;;;;;0;0;;;;;;;0;0;0;;;;
2022/01/18 01:58:12;;;;;;;0;0;;;;;;;0;0;0;;;;
2022/01/18 01:59:13;;;;;;;0;0;;;;;;;0;0;0;;;;
2022/01/18 02:00:13;;;;;;;14.15;9.75;;;;;;;2.8;78.0791;96856.14;;;;
2022/01/18 02:01:17;;;;;;;14.15;9.75;;;;;;;2.8;78.0791;96856.14;;;;
2022/01/18 02:02:18;;;;;;;14.15;9.75;;;;;;;2.8;78.0791;96856.14;;;;
2022/01/18 02:03:18;;;;;;;14.15;9.75;;;;;;;2.8;78.0791;96856.14;;;;
2022/01/18 02:04:19;;;;;;;14.15;9.75;;;;;;;2.8;78.0791;96856.14;;;;
2022/01/18 02:05:20;;;;;;;14.15;9.75;;;;;;;2.8;78.0791;96856.14;;;;
2022/01/18 02:06:22;;;;;;;14.15;9.75;;;;;;;2.8;78.0791;96856.14;;;;
2022/01/18 02:07:23;;;;;;;14.15;9.75;;;;;;;2.8;78.0791;96856.14;;;;
2022/01/18 02:08:23;;;;;;;14.15;9.75;;;;;;;2.8;78.0791;96856.14;;;;
2022/01/18 02:09:24;;;;;;;14.15;9.75;;;;;;;2.8;78.0791;96856.14;;;;
2022/01/18 02:10:24;;;;;;;14.15;9.75;;;;;;;2.8;78.0791;96856.14;;;;
2022/01/18 02:11:25;;;;;;;14.1;9.199999;;;;;;;2.88;78.19043;96847.74;;;;
2022/01/18 02:12:25;;;;;;;14.1;9.199999;;;;;;;2.88;78.19043;96847.74;;;;
2022/01/18 02:13:26;;;;;;;14.1;9.199999;;;;;;;2.88;78.19043;96847.74;;;;
2022/01/18 02:14:27;;;;;;;14.1;9.199999;;;;;;;2.88;78.19043;96847.74;;;;
2022/01/18 02:15:28;;;;;;;14.1;9.199999;;;;;;;2.88;78.19043;96847.74;;;;
2022/01/18 02:21:48;;;;;;;0;0;;;;;;;0;0;0;;;;
2022/01/18 02:22:49;;;;;;;0;0;;;;;;;0;0;0;;;;
2022/01/18 02:23:49;;;;;;;0;0;;;;;;;0;0;0;;;;
2022/01/18 02:24:50;;;;;;;0;0;;;;;;;0;0;0;;;;
2022/01/18 02:25:50;;;;;;;0;0;;;;;;;0;0;0;;;;
2022/01/18 02:26:51;;;;;;;0;0;;;;;;;0;0;0;;;;
2022/01/18 02:27:51;;;;;;;0;0;;;;;;;0;0;0;;;;
2022/01/18 02:28:52;;;;;;;0;0;;;;;;;0;0;0;;;;
2022/01/18 02:29:52;;;;;;;0;0;;;;;;;0;0;0;;;;
2022/01/18 02:30:53;;;;;;;0;0;;;;;;;0;0;0;;;;
2022/01/18 02:31:54;;;;;;;0;0;;;;;;;0;0;0;;;;
2022/01/18 02:32:56;;;;;;;0;0;;;;;;;0;0;0;;;;
2022/01/18 02:33:57;;;;;;;0;0;;;;;;;0;0;0;;;;
2022/01/18 02:35:01;;;;;;;0;0;;;;;;;0;0;0;;;;
2022/01/18 02:36:02;;;;;;;0;0;;;;;;;0;0;0;;;;
2022/01/18 02:37:08;;;;;;;0;0;;;;;;;0;0;0;;;;
2022/01/18 02:38:09;;;;;;;0;0;;;;;;;0;0;0;;;;
2022/01/18 02:39:09;;;;;;;0;0;;;;;;;0;0;0;;;;
2022/01/18 02:40:12;;;;;;;0;0;;;;;;;0;0;0;;;;
2022/01/18 02:41:13;;;;;;;0;0;;;;;;;0;0;0;;;;
2022/01/18 02:42:22;;;;;;;0;0;;;;;;;0;0;0;;;;
2022/01/18 02:43:57;;;;;;;0;0;;;;;;;0;0;0;;;;
2022/01/18 02:44:59;;;;;;;0;0;;;;;;;0;0;0;;;;
2022/01/18 02:45:59;;;;;;;0;0;;;;;;;0;0;0;;;;
2022/01/18 02:47:00;;;;;;;0;0;;;;;;;0;0;0;;;;
2022/01/18 02:48:01;;;;;;;0;0;;;;;;;0;0;0;;;;
2022/01/18 02:49:02;;;;;;;0;0;;;;;;;0;0;0;;;;
2022/01/18 02:50:03;;;;;;;0;0;;;;;;;0;0;0;;;;
2022/01/18 02:51:05;;;;;;;0;0;;;;;;;0;0;0;;;;
2022/01/18 02:52:06;;;;;;;0;0;;;;;;;0;0;0;;;;
2022/01/18 02:53:07;;;;;;;0;0;;;;;;;0;0;0;;;;
2022/01/18 02:54:07;;;;;;;0;0;;;;;;;0;0;0;;;;
2022/01/18 02:55:11;;;;;;;0;0;;;;;;;0;0;0;;;;
2022/01/18 02:56:11;;;;;;;0;0;;;;;;;0;0;0;;;;
2022/01/18 02:57:14;;;;;;;0;0;;;;;;;0;0;0;;;;
2022/01/18 02:58:21;;;;;;;0;0;;;;;;;0;0;0;;;;
2022/01/18 02:59:29;;;;;;;0;0;;;;;;;0;0;0;;;;
2022/01/18 03:00:43;;;;;;;0;0;;;;;;;0;0;0;;;;
2022/01/18 03:06:57;;;;;;;0;0;;;;;;;0;0;0;;;;
2022/01/18 03:07:57;;;;;;;0;0;;;;;;;0;0;0;;;;
2022/01/18 03:08:58;;;;;;;0;0;;;;;;;0;0;0;;;;
2022/01/18 03:09:58;;;;;;;0;0;;;;;;;0;0;0;;;;
2022/01/18 03:10:59;;;;;;;0;0;;;;;;;0;0;0;;;;
2022/01/18 03:12:00;;;;;;;0;0;;;;;;;0;0;0;;;;
2022/01/18 03:13:02;;;;;;;0;0;;;;;;;0;0;0;;;;
2022/01/18 03:14:04;;;;;;;0;0;;;;;;;0;0;0;;;;
2022/01/18 03:15:05;;;;;;;0;0;;;;;;;0;0;0;;;;
2022/01/18 03:16:07;;;;;;;0;0;;;;;;;0;0;0;;;;
2022/01/18 03:17:07;;;;;;;0;0;;;;;;;0;0;0;;;;
2022/01/18 03:18:08;;;;;;;0;0;;;;;;;0;0;0;;;;
2022/01/18 03:19:09;;;;;;;0;0;;;;;;;0;0;0;;;;
2022/01/18 03:20:12;;;;;;;0;0;;;;;;;0;0;0;;;;
2022/01/18 03:21:12;;;;;;;0;0;;;;;;;0;0;0;;;;
2022/01/18 03:22:13;;;;;;;0;0;;;;;;;0;0;0;;;;
2022/01/18 03:23:18;;;;;;;0;0;;;;;;;0;0;0;;;;
2022/01/18 03:24:32;;;;;;;0;0;;;;;;;0;0;0;;;;
2022/01/18 03:25:41;;;;;;;0;0;;;;;;;0;0;0;;;;
2022/01/18 03:31:54;;;;;;;0;0;;;;;;;0;0;0;;;;
2022/01/18 03:32:55;;;;;;;0;0;;;;;;;0;0;0;;;;
2022/01/18 03:33:56;;;;;;;0;0;;;;;;;0;0;0;;;;
2022/01/18 03:34:56;;;;;;;0;0;;;;;;;0;0;0;;;;
2022/01/18 03:35:57;;;;;;;0;0;;;;;;;0;0;0;;;;
2022/01/18 03:36:58;;;;;;;0;0;;;;;;;0;0;0;;;;
2022/01/18 03:37:58;;;;;;;0;0;;;;;;;0;0;0;;;;
2022/01/18 03:38:59;;;;;;;0;0;;;;;;;0;0;0;;;;
2022/01/18 03:40:00;;;;;;;0;0;;;;;;;0;0;0;;;;
2022/01/18 03:41:01;;;;;;;0;0;;;;;;;0;0;0;;;;
2022/01/18 03:42:32;;;;;;;0;0;;;;;;;0;0;0;;;;
2022/01/18 03:43:34;;;;;;;0;0;;;;;;;0;0;0;;;;
2022/01/18 03:44:35;;;;;;;0;0;;;;;;;0;0;0;;;;
2022/01/18 03:45:40;;;;;;;0;0;;;;;;;0;0;0;;;;
2022/01/18 03:46:43;;;;;;;0;0;;;;;;;0;0;0;;;;
2022/01/18 03:47:44;;;;;;;0;0;;;;;;;0;0;0;;;;
2022/01/18 03:48:50;;;;;;;0;0;;;;;;;0;0;0;;;;
2022/01/18 03:49:51;;;;;;;0;0;;;;;;;0;0;0;;;;
2022/01/18 03:50:51;;;;;;;0;0;;;;;;;0;0;0;;;;
2022/01/18 03:51:52;;;;;;;0;0;;;;;;;0;0;0;;;;
2022/01/18 03:52:52;;;;;;;0;0;;;;;;;0;0;0;;;;
2022/01/18 03:53:54;;;;;;;0;0;;;;;;;0;0;0;;;;
2022/01/18 03:54:54;;;;;;;0;0;;;;;;;0;0;0;;;;
2022/01/18 03:55:55;;;;;;;0;0;;;;;;;0;0;0;;;;
2022/01/18 03:56:56;;;;;;;0;0;;;;;;;0;0;0;;;;
2022/01/18 03:57:57;;;;;;;0;0;;;;;;;0;0;0;;;;
2022/01/18 03:58:57;;;;;;;0;0;;;;;;;0;0;0;;;;
2022/01/18 03:59:57;;;;;;;0;0;;;;;;;0;0;0;;;;
2022/01/18 04:00:59;;;;;;;0;0;;;;;;;0;0;0;;;;
2022/01/18 04:01:59;;;;;;;0;0;;;;;;;0;0;0;;;;
2022/01/18 04:03:00;;;;;;;0;0;;;;;;;0;0;0;;;;
2022/01/18 04:04:01;;;;;;;0;0;;;;;;;0;0;0;;;;
2022/01/18 04:05:01;;;;;;;0;0;;;;;;;0;0;0;;;;
2022/01/18 04:06:03;;;;;;;0;0;;;;;;;0;0;0;;;;
2022/01/18 04:07:03;;;;;;;0;0;;;;;;;0;0;0;;;;
2022/01/18 04:08:05;;;;;;;0;0;;;;;;;0;0;0;;;;
2022/01/18 04:09:06;;;;;;;0;0;;;;;;;0;0;0;;;;
2022/01/18 04:10:06;;;;;;;0;0;;;;;;;0;0;0;;;;
2022/01/18 04:11:08;;;;;;;0;0;;;;;;;0;0;0;;;;
2022/01/18 04:12:09;;;;;;;0;0;;;;;;;0;0;0;;;;
2022/01/18 04:13:09;;;;;;;0;0;;;;;;;0;0;0;;;;
2022/01/18 04:14:10;;;;;;;0;0;;;;;;;0;0;0;;;;
2022/01/18 04:15:11;;;;;;;0;0;;;;;;;0;0;0;;;;
2022/01/18 04:16:14;;;;;;;0;0;;;;;;;0;0;0;;;;
2022/01/18 04:17:29;;;;;;;0;0;;;;;;;0;0;0;;;;
2022/01/18 04:18:35;;;;;;;0;0;;;;;;;0;0;0;;;;
2022/01/18 04:25:57;;;;;;;0;0;;;;;;;0;0;0;;;;
2022/01/18 04:27:00;;;;;;;0;0;;;;;;;0;0;0;;;;
2022/01/18 04:28:08;;;;;;;0;0;;;;;;;0;0;0;;;;
2022/01/18 04:29:11;;;;;;;0;0;;;;;;;0;0;0;;;;
2022/01/18 04:30:11;;;;;;;0;0;;;;;;;0;0;0;;;;
2022/01/18 04:31:12;;;;;;;0;0;;;;;;;0;0;0;;;;
2022/01/18 04:32:12;;;;;;;0;0;;;;;;;0;0;0;;;;
2022/01/18 04:33:13;;;;;;;0;0;;;;;;;0;0;0;;;;
2022/01/18 04:34:13;;;;;;;0;0;;;;;;;0;0;0;;;;
2022/01/18 04:35:14;;;;;;;0;0;;;;;;;0;0;0;;;;
2022/01/18 04:36:14;;;;;;;0;0;;;;;;;0;0;0;;;;
2022/01/18 04:37:15;;;;;;;0;0;;;;;;;0;0;0;;;;
2022/01/18 04:38:15;;;;;;;0;0;;;;;;;0;0;0;;;;
2022/01/18 04:39:16;;;;;;;0;0;;;;;;;0;0;0;;;;
2022/01/18 04:40:19;;;;;;;0;0;;;;;;;0;0;0;;;;
2022/01/18 04:41:25;;;;;;;0;0;;;;;;;0;0;0;;;;
2022/01/18 04:42:38;;;;;;;0;0;;;;;;;0;0;0;;;;
2022/01/18 04:43:47;;;;;;;0;0;;;;;;;0;0;0;;;;
2022/01/18 04:48:27;;;;;;;0;0;;;;;;;0;0;0;;;;
2022/01/18 04:49:28;;;;;;;0;0;;;;;;;0;0;0;;;;
2022/01/18 04:50:29;;;;;;;0;0;;;;;;;0;0;0;;;;
2022/01/18 04:51:29;;;;;;;0;0;;;;;;;0;0;0;;;;
2022/01/18 04:52:30;;;;;;;0;0;;;;;;;0;0;0;;;;
2022/01/18 04:53:31;;;;;;;0;0;;;;;;;0;0;0;;;;
2022/01/18 04:54:33;;;;;;;0;0;;;;;;;0;0;0;;;;
2022/01/18 04:55:35;;;;;;;0;0;;;;;;;0;0;0;;;;
2022/01/18 05:01:33;;;;;;;0;0;;;;;;;0;0;0;;;;
2022/01/18 05:02:35;;;;;;;0;0;;;;;;;0;0;0;;;;
2022/01/18 05:03:35;;;;;;;0;0;;;;;;;0;0;0;;;;
2022/01/18 05:04:36;;;;;;;0;0;;;;;;;0;0;0;;;;
2022/01/18 05:05:37;;;;;;;0;0;;;;;;;0;0;0;;;;
2022/01/18 05:06:38;;;;;;;0;0;;;;;;;0;0;0;;;;
2022/01/18 05:07:39;;;;;;;0;0;;;;;;;0;0;0;;;;
2022/01/18 05:08:39;;;;;;;0;0;;;;;;;0;0;0;;;;
2022/01/18 05:09:42;;;;;;;0;0;;;;;;;0;0;0;;;;
2022/01/18 05:10:43;;;;;;;0;0;;;;;;;0;0;0;;;;
2022/01/18 05:11:51;;;;;;;0;0;;;;;;;0;0;0;;;;
2022/01/18 05:12:54;;;;;;;0;0;;;;;;;0;0;0;;;;
2022/01/18 05:14:15;;;;;;;0;0;;;;;;;0;0;0;;;;
2022/01/18 05:15:35;;;;;;;0;0;;;;;;;0;0;0;;;;
2022/01/18 05:16:51;;;;;;;0;0;;;;;;;0;0;0;;;;
2022/01/18 05:18:12;;;;;;;0;0;;;;;;;0;0;0;;;;
2022/01/18 05:19:20;;;;;;;0;0;;;;;;;0;0;0;;;;
2022/01/18 05:20:40;;;;;;;0;0;;;;;;;0;0;0;;;;
2022/01/18 05:26:38;;;;;;;0;0;;;;;;;0;0;0;;;;
2022/01/18 05:27:39;;;;;;;0;0;;;;;;;0;0;0;;;;
2022/01/18 05:28:40;;;;;;;0;0;;;;;;;0;0;0;;;;
2022/01/18 05:29:40;;;;;;;0;0;;;;;;;0;0;0;;;;
2022/01/18 05:30:40;;;;;;;0;0;;;;;;;0;0;0;;;;
2022/01/18 05:31:41;;;;;;;0;0;;;;;;;0;0;0;;;;
2022/01/18 05:32:42;;;;;;;0;0;;;;;;;0;0;0;;;;
2022/01/18 05:33:42;;;;;;;0;0;;;;;;;0;0;0;;;;
2022/01/18 05:34:48;;;;;;;0;0;;;;;;;0;0;0;;;;
2022/01/18 05:35:48;;;;;;;0;0;;;;;;;0;0;0;;;;
2022/01/18 05:36:50;;;;;;;0;0;;;;;;;0;0;0;;;;
2022/01/18 05:37:50;;;;;;;0;0;;;;;;;0;0;0;;;;
2022/01/18 05:38:51;;;;;;;0;0;;;;;;;0;0;0;;;;
2022/01/18 05:39:51;;;;;;;0;0;;;;;;;0;0;0;;;;
2022/01/18 05:40:52;;;;;;;0;0;;;;;;;0;0;0;;;;
2022/01/18 05:41:52;;;;;;;0;0;;;;;;;0;0;0;;;;
2022/01/18 05:42:53;;;;;;;0;0;;;;;;;0;0;0;;;;
2022/01/18 05:43:54;;;;;;;0;0;;;;;;;0;0;0;;;;
2022/01/18 05:44:54;;;;;;;0;0;;;;;;;0;0;0;;;;
2022/01/18 05:45:55;;;;;;;0;0;;;;;;;0;0;0;;;;
2022/01/18 05:46:55;;;;;;;0;0;;;;;;;0;0;0;;;;
2022/01/18 05:47:56;;;;;;;0;0;;;;;;;0;0;0;;;;
2022/01/18 05:49:00;;;;;;;0;0;;;;;;;0;0;0;;;;
2022/01/18 05:50:02;;;;;;;0;0;;;;;;;0;0;0;;;;
2022/01/18 05:51:03;;;;;;;0;0;;;;;;;0;0;0;;;;
2022/01/18 05:52:04;;;;;;;0;0;;;;;;;0;0;0;;;;
2022/01/18 05:53:05;;;;;;;0;0;;;;;;;0;0;0;;;;
2022/01/18 05:54:05;;;;;;;0;0;;;;;;;0;0;0;;;;
2022/01/18 05:55:06;;;;;;;0;0;;;;;;;0;0;0;;;;
2022/01/18 05:56:11;;;;;;;0;0;;;;;;;0;0;0;;;;
2022/01/18 05:57:12;;;;;;;0;0;;;;;;;0;0;0;;;;
2022/01/18 05:58:12;;;;;;;0;0;;;;;;;0;0;0;;;;
2022/01/18 05:59:21;;;;;;;0;0;;;;;;;0;0;0;;;;
2022/01/18 06:00:23;;;;;;;0;0;;;;;;;0;0;0;;;;
2022/01/18 06:01:25;;;;;;;0;0;;;;;;;0;0;0;;;;
2022/01/18 06:02:36;;;;;;;0;0;;;;;;;0;0;0;;;;
2022/01/18 06:03:50;;;;;;;0;0;;;;;;;0;0;0;;;;
2022/01/18 06:10:04;;;;;;;0;0;;;;;;;0;0;0;;;;
2022/01/18 06:11:05;;;;;;;0;0;;;;;;;0;0;0;;;;
2022/01/18 06:12:05;;;;;;;0;0;;;;;;;0;0;0;;;;
2022/01/18 06:13:08;;;;;;;0;0;;;;;;;0;0;0;;;;
2022/01/18 06:14:08;;;;;;;0;0;;;;;;;0;0;0;;;;
2022/01/18 06:15:09;;;;;;;0;0;;;;;;;0;0;0;;;;
2022/01/18 06:16:10;;;;;;;0;0;;;;;;;0;0;0;;;;
2022/01/18 06:17:10;;;;;;;0;0;;;;;;;0;0;0;;;;
2022/01/18 06:18:12;;;;;;;0;0;;;;;;;0;0;0;;;;
2022/01/18 06:19:12;;;;;;;0;0;;;;;;;0;0;0;;;;
2022/01/18 06:20:13;;;;;;;0;0;;;;;;;0;0;0;;;;
2022/01/18 06:21:14;;;;;;;0;0;;;;;;;0;0;0;;;;
2022/01/18 06:22:14;;;;;;;0;0;;;;;;;0;0;0;;;;
2022/01/18 06:23:15;;;;;;;0;0;;;;;;;0;0;0;;;;
2022/01/18 06:24:15;;;;;;;0;0;;;;;;;0;0;0;;;;
2022/01/18 06:25:16;;;;;;;0;0;;;;;;;0;0;0;;;;
2022/01/18 06:26:16;;;;;;;0;0;;;;;;;0;0;0;;;;
2022/01/18 06:27:17;;;;;;;0;0;;;;;;;0;0;0;;;;
2022/01/18 06:28:17;;;;;;;0;0;;;;;;;0;0;0;;;;
2022/01/18 06:29:18;;;;;;;0;0;;;;;;;0;0;0;;;;
2022/01/18 06:30:19;;;;;;;0;0;;;;;;;0;0;0;;;;
2022/01/18 06:31:20;;;;;;;0;0;;;;;;;0;0;0;;;;
2022/01/18 06:32:21;;;;;;;0;0;;;;;;;0;0;0;;;;
2022/01/18 06:33:22;;;;;;;0;0;;;;;;;0;0;0;;;;
2022/01/18 06:34:22;;;;;;;0;0;;;;;;;0;0;0;;;;
2022/01/18 06:35:23;;;;;;;0;0;;;;;;;0;0;0;;;;
2022/01/18 06:36:23;;;;;;;0;0;;;;;;;0;0;0;;;;
2022/01/18 06:37:24;;;;;;;0;0;;;;;;;0;0;0;;;;
2022/01/18 06:38:24;;;;;;;0;0;;;;;;;0;0;0;;;;
2022/01/18 06:39:25;;;;;;;0;0;;;;;;;0;0;0;;;;
2022/01/18 06:40:26;;;;;;;0;0;;;;;;;0;0;0;;;;
2022/01/18 06:41:26;;;;;;;0;0;;;;;;;0;0;0;;;;
2022/01/18 06:42:27;;;;;;;0;0;;;;;;;0;0;0;;;;
2022/01/18 06:43:27;;;;;;;0;0;;;;;;;0;0;0;;;;
2022/01/18 06:44:28;;;;;;;0;0;;;;;;;0;0;0;;;;
2022/01/18 06:45:28;;;;;;;0;0;;;;;;;0;0;0;;;;
2022/01/18 06:46:29;;;;;;;0;0;;;;;;;0;0;0;;;;
2022/01/18 06:47:29;;;;;;;0;0;;;;;;;0;0;0;;;;
2022/01/18 06:48:30;;;;;;;0;0;;;;;;;0;0;0;;;;
2022/01/18 06:49:30;;;;;;;0;0;;;;;;;0;0;0;;;;
2022/01/18 06:50:31;;;;;;;0;0;;;;;;;0;0;0;;;;
2022/01/18 06:51:31;;;;;;;0;0;;;;;;;0;0;0;;;;
2022/01/18 06:52:32;;;;;;;0;0;;;;;;;0;0;0;;;;
2022/01/18 06:53:35;;;;;;;0;0;;;;;;;0;0;0;;;;
2022/01/18 06:54:36;;;;;;;0;0;;;;;;;0;0;0;;;;
2022/01/18 06:55:36;;;;;;;0;0;;;;;;;0;0;0;;;;
2022/01/18 06:56:38;;;;;;;0;0;;;;;;;0;0;0;;;;
2022/01/18 06:57:39;;;;;;;0;0;;;;;;;0;0;0;;;;
2022/01/18 06:58:40;;;;;;;0;0;;;;;;;0;0;0;;;;
2022/01/18 06:59:41;;;;;;;0;0;;;;;;;0;0;0;;;;
2022/01/18 07:00:41;;;;;;;0;0;;;;;;;0;0;0;;;;
2022/01/18 07:01:42;;;;;;;0;0;;;;;;;0;0;0;;;;
2022/01/18 07:02:43;;;;;;;0;0;;;;;;;0;0;0;;;;
2022/01/18 07:03:43;;;;;;;0;0;;;;;;;0;0;0;;;;
2022/01/18 07:04:44;;;;;;;0;0;;;;;;;0;0;0;;;;
2022/01/18 07:05:44;;;;;;;0;0;;;;;;;0;0;0;;;;
2022/01/18 07:06:45;;;;;;;0;0;;;;;;;0;0;0;;;;
2022/01/18 07:07:47;;;;;;;0;0;;;;;;;0;0;0;;;;
2022/01/18 07:08:48;;;;;;;0;0;;;;;;;0;0;0;;;;
2022/01/18 07:09:48;;;;;;;0;0;;;;;;;0;0;0;;;;
2022/01/18 07:10:48;;;;;;;0;0;;;;;;;0;0;0;;;;
2022/01/18 07:11:49;;;;;;;0;0;;;;;;;0;0;0;;;;
2022/01/18 07:12:50;;;;;;;0;0;;;;;;;0;0;0;;;;
2022/01/18 07:13:50;;;;;;;0;0;;;;;;;0;0;0;;;;
2022/01/18 07:14:51;;;;;;;0;0;;;;;;;0;0;0;;;;
2022/01/18 07:15:51;;;;;;;0;0;;;;;;;0;0;0;;;;
2022/01/18 07:16:52;;;;;;;0;0;;;;;;;0;0;0;;;;
2022/01/18 07:17:52;;;;;;;0;0;;;;;;;0;0;0;;;;
2022/01/18 07:18:53;;;;;;;0;0;;;;;;;0;0;0;;;;
2022/01/18 07:19:54;;;;;;;0;0;;;;;;;0;0;0;;;;
2022/01/18 07:20:54;;;;;;;0;0;;;;;;;0;0;0;;;;
2022/01/18 07:21:55;;;;;;;0;0;;;;;;;0;0;0;;;;
2022/01/18 07:22:55;;;;;;;0;0;;;;;;;0;0;0;;;;
2022/01/18 07:24:04;;;;;;;0;0;;;;;;;0;0;0;;;;
2022/01/18 07:25:11;;;;;;;0;0;;;;;;;0;0;0;;;;
2022/01/18 07:26:11;;;;;;;0;0;;;;;;;0;0;0;;;;
2022/01/18 07:27:12;;;;;;;0;0;;;;;;;0;0;0;;;;
2022/01/18 07:28:14;;;;;;;0;0;;;;;;;0;0;0;;;;
2022/01/18 07:29:16;;;;;;;0;0;;;;;;;0;0;0;;;;
2022/01/18 07:30:17;;;;;;;0;0;;;;;;;0;0;0;;;;
2022/01/18 07:31:18;;;;;;;0;0;;;;;;;0;0;0;;;;
2022/01/18 07:32:18;;;;;;;0;0;;;;;;;0;0;0;;;;
2022/01/18 07:33:19;;;;;;;0;0;;;;;;;0;0;0;;;;
2022/01/18 07:34:20;;;;;;;0;0;;;;;;;0;0;0;;;;
2022/01/18 07:35:21;;;;;;;0;0;;;;;;;0;0;0;;;;
2022/01/18 07:36:21;;;;;;;0;0;;;;;;;0;0;0;;;;
2022/01/18 07:37:22;;;;;;;0;0;;;;;;;0;0;0;;;;
2022/01/18 07:38:23;;;;;;;0;0;;;;;;;0;0;0;;;;
2022/01/18 07:39:23;;;;;;;0;0;;;;;;;0;0;0;;;;
2022/01/18 07:40:24;;;;;;;0;0;;;;;;;0;0;0;;;;
2022/01/18 07:41:24;;;;;;;0;0;;;;;;;0;0;0;;;;
2022/01/18 07:42:25;;;;;;;0;0;;;;;;;0;0;0;;;;
2022/01/18 07:43:25;;;;;;;0;0;;;;;;;0;0;0;;;;
2022/01/18 07:44:26;;;;;;;0;0;;;;;;;0;0;0;;;;
2022/01/18 07:45:26;;;;;;;0;0;;;;;;;0;0;0;;;;
2022/01/18 07:46:28;;;;;;;0;0;;;;;;;0;0;0;;;;
2022/01/18 07:47:28;;;;;;;0;0;;;;;;;0;0;0;;;;
2022/01/18 07:48:29;;;;;;;0;0;;;;;;;0;0;0;;;;
2022/01/18 07:49:29;;;;;;;0;0;;;;;;;0;0;0;;;;
2022/01/18 07:50:30;;;;;;;0;0;;;;;;;0;0;0;;;;
2022/01/18 07:51:30;;;;;;;0;0;;;;;;;0;0;0;;;;
2022/01/18 07:52:35;;;;;;;0;0;;;;;;;0;0;0;;;;
2022/01/18 07:53:36;;;;;;;0;0;;;;;;;0;0;0;;;;
2022/01/18 07:54:36;;;;;;;0;0;;;;;;;0;0;0;;;;
2022/01/18 07:55:36;;;;;;;0;0;;;;;;;0;0;0;;;;
2022/01/18 07:56:40;;;;;;;0;0;;;;;;;0;0;0;;;;
2022/01/18 07:57:42;;;;;;;0;0;;;;;;;0;0;0;;;;
2022/01/18 07:58:43;;;;;;;0;0;;;;;;;0;0;0;;;;
2022/01/18 07:59:44;;;;;;;0;0;;;;;;;0;0;0;;;;
2022/01/18 08:00:44;;;;;;;0;0;;;;;;;0;0;0;;;;
2022/01/18 08:01:45;;;;;;;0;0;;;;;;;0;0;0;;;;
2022/01/18 08:02:46;;;;;;;0;0;;;;;;;0;0;0;;;;
2022/01/18 08:03:46;;;;;;;0;0;;;;;;;0;0;0;;;;
2022/01/18 08:04:47;;;;;;;0;0;;;;;;;0;0;0;;;;
2022/01/18 08:05:49;;;;;;;0;0;;;;;;;0;0;0;;;;
2022/01/18 08:06:50;;;;;;;0;0;;;;;;;0;0;0;;;;
2022/01/18 08:07:51;;;;;;;0;0;;;;;;;0;0;0;;;;
2022/01/18 08:08:51;;;;;;;0;0;;;;;;;0;0;0;;;;
2022/01/18 08:09:52;;;;;;;0;0;;;;;;;0;0;0;;;;
2022/01/18 08:10:52;;;;;;;0;0;;;;;;;0;0;0;;;;
2022/01/18 08:11:53;;;;;;;0;0;;;;;;;0;0;0;;;;
2022/01/18 08:12:53;;;;;;;0;0;;;;;;;0;0;0;;;;
2022/01/18 08:13:54;;;;;;;0;0;;;;;;;0;0;0;;;;
2022/01/18 08:15:00;;;;;;;0;0;;;;;;;0;0;0;;;;
2022/01/18 08:16:21;;;;;;;0;0;;;;;;;0;0;0;;;;
2022/01/18 08:17:22;;;;;;;0;0;;;;;;;0;0;0;;;;
2022/01/18 08:18:22;;;;;;;0;0;;;;;;;0;0;0;;;;
2022/01/18 08:19:23;;;;;;;0;0;;;;;;;0;0;0;;;;
2022/01/18 08:20:23;;;;;;;0;0;;;;;;;0;0;0;;;;
2022/01/18 08:21:24;;;;;;;0;0;;;;;;;0;0;0;;;;
2022/01/18 08:22:25;;;;;;;0;0;;;;;;;0;0;0;;;;
2022/01/18 08:23:25;;;;;;;0;0;;;;;;;0;0;0;;;;
2022/01/18 08:24:26;;;;;;;0;0;;;;;;;0;0;0;;;;
2022/01/18 08:25:27;;;;;;;0;0;;;;;;;0;0;0;;;;
2022/01/18 08:26:27;;;;;;;0;0;;;;;;;0;0;0;;;;
2022/01/18 08:27:28;;;;;;;0;0;;;;;;;0;0;0;;;;
2022/01/18 08:28:28;;;;;;;0;0;;;;;;;0;0;0;;;;
2022/01/18 08:29:29;;;;;;;0;0;;;;;;;0;0;0;;;;
2022/01/18 08:30:30;;;;;;;0;0;;;;;;;0;0;0;;;;
2022/01/18 08:31:30;;;;;;;0;0;;;;;;;0;0;0;;;;
2022/01/18 08:32:31;;;;;;;0;0;;;;;;;0;0;0;;;;
2022/01/18 08:33:32;;;;;;;0;0;;;;;;;0;0;0;;;;
2022/01/18 08:34:33;;;;;;;0;0;;;;;;;0;0;0;;;;
2022/01/18 08:35:33;;;;;;;0;0;;;;;;;0;0;0;;;;
2022/01/18 08:36:34;;;;;;;0;0;;;;;;;0;0;0;;;;
2022/01/18 08:37:35;;;;;;;0;0;;;;;;;0;0;0;;;;
2022/01/18 08:38:36;;;;;;;0;0;;;;;;;0;0;0;;;;
2022/01/18 08:39:37;;;;;;;0;0;;;;;;;0;0;0;;;;
2022/01/18 08:40:37;;;;;;;0;0;;;;;;;0;0;0;;;;
2022/01/18 08:41:38;;;;;;;0;0;;;;;;;0;0;0;;;;
2022/01/18 08:42:38;;;;;;;0;0;;;;;;;0;0;0;;;;
2022/01/18 08:43:39;;;;;;;0;0;;;;;;;0;0;0;;;;
2022/01/18 08:44:43;;;;;;;0;0;;;;;;;0;0;0;;;;
2022/01/18 08:45:43;;;;;;;0;0;;;;;;;0;0;0;;;;
2022/01/18 08:46:44;;;;;;;0;0;;;;;;;0;0;0;;;;
2022/01/18 08:47:44;;;;;;;0;0;;;;;;;0;0;0;;;;
2022/01/18 08:48:45;;;;;;;0;0;;;;;;;0;0;0;;;;
2022/01/18 08:49:46;;;;;;;0;0;;;;;;;0;0;0;;;;
2022/01/18 08:50:46;;;;;;;0;0;;;;;;;0;0;0;;;;
2022/01/18 08:51:47;;;;;;;0;0;;;;;;;0;0;0;;;;
2022/01/18 08:52:51;;;;;;;0;0;;;;;;;0;0;0;;;;
2022/01/18 08:53:51;;;;;;;0;0;;;;;;;0;0;0;;;;
2022/01/18 08:54:51;;;;;;;0;0;;;;;;;0;0;0;;;;
2022/01/18 08:55:53;;;;;;;0;0;;;;;;;0;0;0;;;;
2022/01/18 08:56:53;;;;;;;0;0;;;;;;;0;0;0;;;;
2022/01/18 08:57:54;;;;;;;0;0;;;;;;;0;0;0;;;;
2022/01/18 08:58:54;;;;;;;0;0;;;;;;;0;0;0;;;;
2022/01/18 08:59:55;;;;;;;0;0;;;;;;;0;0;0;;;;
2022/01/18 09:00:55;;;;;;;0;0;;;;;;;0;0;0;;;;
2022/01/18 09:01:57;;;;;;;0;0;;;;;;;0;0;0;;;;
2022/01/18 09:02:58;;;;;;;0;0;;;;;;;0;0;0;;;;
2022/01/18 09:04:01;;;;;;;0;0;;;;;;;0;0;0;;;;
2022/01/18 09:05:01;;;;;;;0;0;;;;;;;0;0;0;;;;
2022/01/18 09:06:04;;;;;;;0;0;;;;;;;0;0;0;;;;
2022/01/18 09:07:08;;;;;;;0;0;;;;;;;0;0;0;;;;
2022/01/18 09:08:11;;;;;;;0;0;;;;;;;0;0;0;;;;
2022/01/18 09:09:15;;;;;;;0;0;;;;;;;0;0;0;;;;
2022/01/18 09:10:15;;;;;;;0;0;;;;;;;0;0;0;;;;